Time;durP1;ratioP1;P1;durP2;ratioP2;P2;SDS_P1;SDS_P2;PMS_P1;PMS_P2;Temp;Humidity;BMP_temperature;BMP_pressure;BME280_temperature;BME280_humidity;BME280_pressure;Samples;Min_cycle;Max_cycle;Signal;HPM_P1;HPM_P2
2020/12/13 00:00:14;;;;;;;53.15;22.50;;;9.80;97.20;;;9.24;86.35;99402.84;4987586;28;20121;-80
2020/12/13 00:02:42;;;;;;;58.40;23.88;;;9.80;97.20;;;9.25;86.54;99407.22;4986893;28;20039;-80
2020/12/13 00:05:09;;;;;;;56.88;25.30;;;9.80;97.30;;;9.24;86.41;99402.84;4982003;28;20564;-80
2020/12/13 00:07:36;;;;;;;54.28;23.40;;;9.80;97.40;;;9.25;86.45;99409.94;4984086;28;20062;-80
2020/12/13 00:10:04;;;;;;;55.92;24.42;;;9.80;97.30;;;9.25;86.27;99407.22;4983839;28;20078;-80
2020/12/13 00:12:30;;;;;;;58.28;24.70;;;9.80;97.30;;;9.20;86.83;99407.84;4984863;28;20066;-80
2020/12/13 00:14:58;;;;;;;60.45;25.67;;;9.80;97.50;;;9.22;86.70;99410.38;4983362;28;20047;-80
2020/12/13 00:17:25;;;;;;;75.72;29.40;;;9.80;97.40;;;9.23;86.86;99420.16;4984143;28;20377;-81
2020/12/13 00:19:51;;;;;;;60.85;27.35;;;9.80;97.90;;;9.23;86.65;99422.06;4985691;28;20043;-80
2020/12/13 00:22:18;;;;;;;61.42;27.27;;;9.80;97.60;;;9.23;86.61;99414.75;4985441;28;20563;-80
2020/12/13 00:24:45;;;;;;;68.50;28.65;;;9.80;97.60;;;9.23;86.51;99422.88;4985026;28;20054;-81
2020/12/13 00:27:13;;;;;;;69.47;28.17;;;9.80;97.50;;;9.23;86.65;99420.16;4985579;28;20072;-81
2020/12/13 00:29:40;;;;;;;66.47;28.27;;;9.80;97.50;;;9.24;86.02;99424.56;4985538;28;20050;-80
2020/12/13 00:32:08;;;;;;;58.75;27.13;;;9.80;97.70;;;9.23;86.10;99420.16;4983731;28;20086;-80
2020/12/13 00:34:35;;;;;;;58.55;26.38;;;9.80;97.80;;;9.25;86.38;99426.22;4982585;28;20046;-80
2020/12/13 00:37:02;;;;;;;59.05;26.50;;;9.80;97.70;;;9.24;86.07;99427.28;4983903;28;20054;-80
2020/12/13 00:39:29;;;;;;;69.00;28.30;;;9.80;97.80;;;9.21;86.57;99424.97;4983378;28;20051;-80
2020/12/13 00:41:56;;;;;;;61.38;27.52;;;9.80;97.80;;;9.22;86.53;99425.84;4983339;28;20078;-80
2020/12/13 00:44:23;;;;;;;65.40;28.52;;;9.80;97.80;;;9.21;86.78;99430.41;4981746;28;20082;-80
2020/12/13 00:46:50;;;;;;;70.90;30.70;;;9.80;97.80;;;9.22;86.63;99440.22;4981319;28;20043;-81
2020/12/13 00:49:17;;;;;;;66.65;30.20;;;9.80;97.90;;;9.25;86.12;99445.25;4972766;28;20047;-80
2020/12/13 00:51:45;;;;;;;59.83;26.55;;;9.80;97.80;;;9.22;86.84;99451.09;4981596;28;20051;-80
2020/12/13 00:54:12;;;;;;;64.30;27.70;;;9.80;97.90;;;9.23;86.34;99450.03;4981635;28;20110;-80
2020/12/13 00:56:43;;;;;;;63.05;27.63;;;9.80;97.90;;;9.21;86.99;99460.25;4981446;28;20077;-81
2020/12/13 00:59:10;;;;;;;60.00;26.58;;;9.80;97.90;;;9.22;86.79;99464.66;4980797;28;20042;-80
2020/12/13 01:01:37;;;;;;;57.40;26.30;;;9.80;97.90;;;9.24;86.57;99461.75;4983516;28;20098;-80
2020/12/13 01:04:04;;;;;;;56.58;25.73;;;9.80;98.00;;;9.25;86.46;99471.56;4981861;28;20224;-80
2020/12/13 01:06:31;;;;;;;59.03;26.55;;;9.70;97.90;;;9.26;86.46;99463.22;4983014;28;20042;-80
2020/12/13 01:08:58;;;;;;;55.00;24.90;;;9.80;98.10;;;9.25;86.17;99466.97;4982427;28;20043;-80
2020/12/13 01:11:27;;;;;;;54.78;24.45;;;9.80;98.10;;;9.24;86.38;99473.44;4981976;28;20070;-80
2020/12/13 01:13:54;;;;;;;57.60;24.52;;;9.80;98.10;;;9.25;86.50;99475.09;4982866;28;20035;-81
2020/12/13 01:16:24;;;;;;;51.65;22.92;;;9.80;98.10;;;9.25;86.41;99474.28;4982322;28;20102;-80
2020/12/13 01:18:51;;;;;;;56.35;22.83;;;9.80;98.10;;;9.26;86.42;99481.38;4982681;28;20066;-80
2020/12/13 01:21:19;;;;;;;49.25;21.73;;;9.80;98.10;;;9.22;86.71;99480.94;4984635;28;20038;-80
2020/12/13 01:23:47;;;;;;;56.22;23.48;;;9.80;98.10;;;9.22;86.54;99489.09;4982252;28;20251;-80
2020/12/13 01:26:16;;;;;;;61.80;23.73;;;9.80;98.10;;;9.22;87.03;99496.41;4983854;28;20050;-80
2020/12/13 01:28:43;;;;;;;47.90;21.60;;;9.80;98.00;;;9.25;87.05;99496.00;4984593;28;20074;-80
2020/12/13 01:31:14;;;;;;;54.47;22.33;;;9.80;97.90;;;9.22;86.82;99491.81;4984987;28;20051;-81
2020/12/13 01:33:41;;;;;;;50.73;22.60;;;9.80;98.00;;;9.27;86.74;99499.34;4982690;28;20073;-81
2020/12/13 01:36:13;;;;;;;52.53;23.45;;;9.80;98.00;;;9.26;86.69;99493.06;4984465;28;20051;-81
2020/12/13 01:38:40;;;;;;;55.33;23.57;;;9.80;98.00;;;9.27;86.60;99499.34;4984998;28;20046;-80
2020/12/13 01:41:08;;;;;;;56.35;25.60;;;9.80;98.00;;;9.28;86.34;99504.56;4984414;28;20488;-80
2020/12/13 01:43:35;;;;;;;59.60;24.42;;;9.80;98.10;;;9.28;86.63;99501.84;4992810;28;20042;-80
2020/12/13 01:46:03;;;;;;;59.63;23.35;;;9.80;98.00;;;9.27;86.57;99500.19;4993878;28;20059;-80
2020/12/13 01:48:30;;;;;;;62.40;23.98;;;9.80;98.10;;;9.29;86.56;99502.69;4993785;28;20037;-80
2020/12/13 01:51:07;;;;;;;56.08;24.85;;;9.80;98.10;;;9.26;86.89;99509.38;4991152;28;20055;-81
2020/12/13 01:53:37;;;;;;;59.63;26.40;;;9.80;98.10;;;9.27;86.64;99511.06;4990180;28;20051;-81
2020/12/13 01:56:04;;;;;;;53.75;25.33;;;9.80;98.10;;;9.27;86.86;99513.78;4988661;28;20054;-80
2020/12/13 01:58:37;;;;;;;78.45;29.88;;;9.80;98.20;;;9.28;86.61;99518.16;4987648;28;20062;-81
2020/12/13 02:01:07;;;;;;;55.95;25.75;;;9.80;98.20;;;9.29;86.71;99522.56;4986799;28;20462;-80
2020/12/13 02:03:53;;;;;;;60.88;26.75;;;9.80;98.30;;;9.29;86.84;99514.41;4984682;28;20078;-80
2020/12/13 02:06:25;;;;;;;63.70;28.15;;;9.80;98.20;;;9.31;86.50;99523.19;4984069;28;20078;-81
2020/12/13 02:08:52;;;;;;;64.55;27.15;;;9.80;98.20;;;9.29;86.79;99524.41;4982833;28;20042;-80
2020/12/13 02:11:20;;;;;;;58.58;26.70;;;9.80;98.10;;;9.27;86.99;99524.63;4982517;28;20073;-80
2020/12/13 02:13:48;;;;;;;60.55;26.35;;;9.80;98.10;;;9.27;87.01;99534.63;4982067;28;20043;-80
2020/12/13 02:16:15;;;;;;;64.72;27.77;;;9.80;98.10;;;9.26;86.72;99535.69;4983461;28;20617;-80
2020/12/13 02:18:42;;;;;;;64.53;28.67;;;9.80;98.20;;;9.28;86.71;99533.59;4984850;28;20085;-80
2020/12/13 02:21:10;;;;;;;67.07;28.02;;;9.80;98.20;;;9.30;86.54;99542.38;4984161;28;20050;-80
2020/12/13 02:23:39;;;;;;;56.85;26.17;;;9.80;98.20;;;9.29;86.51;99538.84;4982973;28;20074;-80
2020/12/13 02:26:07;;;;;;;61.72;26.30;;;9.80;98.20;;;9.30;86.70;99540.50;4982649;28;20042;-80
2020/12/13 02:28:35;;;;;;;59.78;26.13;;;9.80;98.30;;;9.30;86.59;99543.22;4982599;28;20102;-80
2020/12/13 02:31:03;;;;;;;66.82;27.13;;;9.80;98.30;;;9.29;86.69;99552.41;4981400;28;20039;-80
2020/12/13 02:33:31;;;;;;;64.22;27.73;;;9.80;98.20;;;9.30;86.56;99559.50;4981117;28;20067;-80
2020/12/13 02:35:57;;;;;;;67.68;28.17;;;9.80;98.20;;;9.31;86.30;99560.34;4981356;28;20066;-80
2020/12/13 02:38:25;;;;;;;58.78;26.90;;;9.80;98.20;;;9.30;86.79;99561.41;4981167;28;20107;-80
2020/12/13 02:40:53;;;;;;;62.70;28.65;;;9.80;98.20;;;9.29;86.81;99566.00;4981126;28;20129;-80
2020/12/13 02:43:20;;;;;;;63.70;27.98;;;9.80;98.20;;;9.28;86.62;99567.03;4979826;28;20142;-80
2020/12/13 02:45:46;;;;;;;58.85;26.10;;;9.80;98.20;;;9.30;86.67;99578.50;4982042;28;20526;-81
2020/12/13 02:48:13;;;;;;;65.75;28.27;;;9.80;98.20;;;9.26;86.75;99582.66;4983741;28;20054;-80
2020/12/13 02:50:40;;;;;;;66.00;29.77;;;9.80;98.20;;;9.26;87.04;99582.66;4984856;28;20035;-81
2020/12/13 02:53:06;;;;;;;74.13;29.45;;;9.80;98.20;;;9.29;86.48;99585.00;4988061;28;20051;-81
2020/12/13 02:55:33;;;;;;;62.88;28.52;;;9.90;98.40;;;9.30;86.26;99589.38;4987584;28;20534;-81
2020/12/13 02:58:01;;;;;;;60.67;27.17;;;9.80;98.20;;;9.30;86.48;99586.66;4988635;28;20042;-80
2020/12/13 03:00:27;;;;;;;69.60;30.27;;;9.80;98.20;;;9.31;86.56;99592.94;4987717;28;20129;-80
2020/12/13 03:02:54;;;;;;;61.50;27.05;;;9.80;98.20;;;9.31;86.34;99588.34;4988190;28;20097;-81
2020/12/13 03:05:21;;;;;;;60.45;27.55;;;9.80;98.20;;;9.30;86.34;99597.53;4986095;28;20043;-80
2020/12/13 03:07:48;;;;;;;62.17;28.15;;;9.80;98.30;;;9.31;86.71;99592.94;4986278;28;20047;-80
2020/12/13 03:10:14;;;;;;;64.93;29.75;;;9.80;98.10;;;9.30;86.70;99596.69;4985344;28;20043;-81
2020/12/13 03:12:41;;;;;;;70.05;31.05;;;9.80;98.20;;;9.31;86.46;99591.06;4983633;28;20046;-80
2020/12/13 03:15:09;;;;;;;67.05;30.23;;;9.80;98.20;;;9.32;86.63;99606.31;4983803;28;20054;-80
2020/12/13 03:17:35;;;;;;;67.65;30.27;;;9.80;98.20;;;9.31;86.29;99593.78;4985266;28;20065;-80
2020/12/13 03:20:02;;;;;;;67.30;30.15;;;9.80;98.30;;;9.34;86.34;99609.66;4985981;28;20054;-80
2020/12/13 03:22:29;;;;;;;73.60;29.80;;;9.90;98.40;;;9.34;86.39;99608.81;4985692;28;20083;-80
2020/12/13 03:24:56;;;;;;;69.95;30.50;;;9.80;98.30;;;9.34;86.52;99604.22;4982956;28;20093;-80
2020/12/13 03:27:25;;;;;;;69.93;31.23;;;9.80;98.30;;;9.31;86.74;99611.94;4982673;28;20127;-80
2020/12/13 03:29:52;;;;;;;68.03;32.30;;;9.80;98.50;;;9.31;86.77;99606.50;4984070;28;20070;-80
2020/12/13 03:32:20;;;;;;;69.07;30.88;;;9.80;98.30;;;9.33;86.53;99610.72;4984540;28;20089;-80
2020/12/13 03:34:47;;;;;;;71.65;32.05;;;9.80;98.30;;;9.31;86.54;99610.06;4984858;28;20069;-80
2020/12/13 03:37:13;;;;;;;69.82;31.45;;;9.90;98.40;;;9.34;86.67;99623.25;4986901;28;20055;-80
2020/12/13 03:39:40;;;;;;;69.18;31.77;;;9.80;98.40;;;9.34;86.85;99625.94;4987027;28;20070;-80
2020/12/13 03:42:07;;;;;;;75.78;34.15;;;9.80;98.30;;;9.34;86.49;99616.97;4986030;28;20039;-80
2020/12/13 03:44:34;;;;;;;74.57;31.77;;;9.80;98.20;;;9.32;86.66;99628.03;4986167;28;20050;-80
2020/12/13 03:47:00;;;;;;;72.60;31.25;;;9.80;98.30;;;9.32;86.60;99627.19;4986804;28;20050;-81
2020/12/13 03:49:28;;;;;;;69.10;30.17;;;9.90;98.30;;;9.31;86.59;99631.78;4986334;28;20046;-80
2020/12/13 03:51:55;;;;;;;69.32;32.47;;;9.90;98.20;;;9.31;86.62;99633.66;4983905;28;20074;-80
2020/12/13 03:54:21;;;;;;;72.22;32.63;;;9.80;98.20;;;9.30;86.79;99630.09;4983561;28;20073;-80
2020/12/13 03:56:48;;;;;;;68.13;31.85;;;9.90;98.30;;;9.32;86.54;99638.88;4984463;28;20458;-80
2020/12/13 03:59:15;;;;;;;67.63;30.48;;;9.80;98.20;;;9.32;86.49;99638.06;4983637;28;20039;-80
2020/12/13 04:01:41;;;;;;;71.22;31.50;;;9.80;98.30;;;9.32;86.75;99649.75;4984250;28;20070;-80
2020/12/13 04:04:08;;;;;;;64.13;31.83;;;9.90;98.40;;;9.30;86.50;99640.97;4982591;28;20077;-80
2020/12/13 04:06:36;;;;;;;62.65;30.75;;;9.90;98.30;;;9.30;86.63;99643.69;4986808;28;20053;-80
2020/12/13 04:09:03;;;;;;;67.47;32.10;;;9.80;98.30;;;9.31;86.77;99642.66;4986700;28;20054;-80
2020/12/13 04:11:31;;;;;;;65.45;31.15;;;9.80;98.40;;;9.33;86.85;99651.44;4987315;28;20066;-80
2020/12/13 04:13:58;;;;;;;65.07;31.90;;;9.80;98.40;;;9.34;86.55;99655.81;4986621;28;20045;-80
2020/12/13 04:16:24;;;;;;;65.15;31.23;;;9.90;98.50;;;9.31;86.57;99653.53;4986612;28;20042;-80
2020/12/13 04:18:51;;;;;;;63.95;29.58;;;9.80;98.30;;;9.32;86.39;99655.19;4986879;28;20135;-81
2020/12/13 04:21:18;;;;;;;71.15;31.60;;;9.80;98.20;;;9.34;86.25;99663.13;4987415;28;20511;-80
2020/12/13 04:23:45;;;;;;;70.35;32.70;;;9.80;98.40;;;9.33;86.38;99661.47;4986092;28;20053;-80
2020/12/13 04:26:12;;;;;;;66.65;32.13;;;9.80;98.30;;;9.32;86.55;99665.22;4987300;28;20081;-80
2020/12/13 04:28:39;;;;;;;63.47;30.95;;;9.90;98.40;;;9.31;86.37;99668.94;4986539;28;20046;-80
2020/12/13 04:31:05;;;;;;;62.78;32.38;;;9.80;98.30;;;9.31;86.67;99664.38;4986087;28;20058;-80
2020/12/13 04:33:32;;;;;;;74.00;31.52;;;9.80;98.40;;;9.32;86.69;99660.59;4986898;28;20071;-80
2020/12/13 04:35:59;;;;;;;63.65;31.27;;;9.80;98.40;;;9.32;86.73;99660.59;4986216;28;20419;-80
2020/12/13 04:38:25;;;;;;;71.63;31.83;;;9.80;98.40;;;9.31;86.70;99663.53;4983461;28;20053;-80
2020/12/13 04:40:53;;;;;;;72.40;32.58;;;9.80;98.50;;;9.31;86.65;99674.38;4983866;28;20078;-80
2020/12/13 04:43:21;;;;;;;73.38;33.92;;;9.80;98.40;;;9.31;86.81;99675.25;4983063;28;20412;-80
2020/12/13 04:45:49;;;;;;;66.32;33.33;;;9.80;98.30;;;9.33;86.48;99678.59;4983381;28;20111;-80
2020/12/13 04:48:17;;;;;;;67.47;31.58;;;9.80;98.50;;;9.34;86.45;99674.00;4983408;28;20078;-80
2020/12/13 04:50:50;;;;;;;66.95;31.23;;;9.80;98.40;;;9.33;86.54;99670.44;4980217;28;20090;-80
2020/12/13 04:53:18;;;;;;;63.50;31.42;;;9.80;98.50;;;9.34;86.47;99674.81;4983000;28;20090;-80
2020/12/13 04:55:55;;;;;;;63.03;30.60;;;9.80;98.50;;;9.36;86.46;99677.34;4984502;28;20039;-81
2020/12/13 04:58:24;;;;;;;63.10;30.80;;;9.80;98.50;;;9.35;86.27;99670.25;4983745;28;20109;-81
2020/12/13 05:00:56;;;;;;;65.28;30.50;;;9.80;98.50;;;9.34;86.69;99679.44;4984530;28;20043;-80
2020/12/13 05:03:23;;;;;;;;;;;9.80;98.40;;;9.32;86.81;99687.75;4983197;28;20094;-81
2020/12/13 05:05:50;;;;;;;62.70;29.80;;;9.80;98.50;;;9.30;87.16;99692.56;4983255;28;19992;-80
2020/12/13 05:08:17;;;;;;;61.35;28.83;;;9.80;98.50;;;9.32;86.66;99693.19;4983376;28;20081;-80
2020/12/13 05:10:44;;;;;;;67.03;32.45;;;9.80;98.50;;;9.31;86.79;99699.69;4983454;28;20114;-80
2020/12/13 05:13:11;;;;;;;68.32;30.13;;;9.80;98.50;;;9.31;86.75;99704.25;4982948;28;20051;-80
2020/12/13 05:15:39;;;;;;;62.97;28.55;;;9.80;98.50;;;9.33;86.50;99707.63;4983874;28;20043;-80
2020/12/13 05:18:06;;;;;;;66.68;29.65;;;9.80;98.50;;;9.31;86.77;99705.09;4984367;28;20058;-80
2020/12/13 05:20:34;;;;;;;64.63;28.60;;;9.90;98.60;;;9.32;86.89;99708.66;4984647;28;20046;-80
2020/12/13 05:23:01;;;;;;;61.13;28.40;;;9.80;98.50;;;9.31;86.62;99715.97;4983731;28;20058;-80
2020/12/13 05:25:33;;;;;;;62.88;27.92;;;9.80;98.50;;;9.31;86.83;99718.69;4989751;28;20103;-80
2020/12/13 05:28:04;;;;;;;58.85;26.50;;;9.90;98.60;;;9.29;87.11;99733.47;4993509;28;20062;-80
2020/12/13 05:30:36;;;;;;;64.88;28.98;;;9.90;98.60;;;9.30;86.95;99741.44;4993889;28;20051;-80
2020/12/13 05:33:07;;;;;;;56.10;27.33;;;9.90;98.50;;;9.32;86.73;99741.25;4992650;28;20054;-80
2020/12/13 05:35:34;;;;;;;62.65;28.70;;;9.90;98.60;;;9.34;86.79;99744.59;4991224;28;20055;-80
2020/12/13 05:38:09;;;;;;;60.60;29.13;;;9.90;98.50;;;9.32;86.90;99744.78;4989890;28;20304;-80
2020/12/13 05:40:37;;;;;;;62.88;28.52;;;9.90;98.60;;;9.36;86.73;99747.94;4987329;28;20063;-80
2020/12/13 05:43:09;;;;;;;66.28;29.52;;;9.90;98.60;;;9.36;86.83;99754.22;4987076;28;20063;-80
2020/12/13 05:45:52;;;;;;;61.00;27.40;;;9.90;98.50;;;9.35;86.97;99751.72;4986084;28;20050;-80
2020/12/13 05:48:47;;;;;;;61.63;27.17;;;9.90;98.60;;;9.36;86.57;99759.66;4986275;28;20422;-80
2020/12/13 05:51:24;;;;;;;63.00;27.67;;;9.90;98.70;;;9.36;86.90;99756.09;4989834;28;20042;-80
2020/12/13 05:53:55;;;;;;;68.50;30.42;;;9.90;98.50;;;9.37;86.89;99755.91;4989566;28;20054;-80
2020/12/13 05:56:23;;;;;;;65.88;28.10;;;9.90;98.70;;;9.29;87.17;99753.34;4990137;28;20050;-80
2020/12/13 05:58:52;;;;;;;62.53;28.23;;;9.90;98.70;;;9.32;87.40;99757.53;4990406;28;20051;-80
2020/12/13 06:01:24;;;;;;;67.93;29.85;;;9.90;98.70;;;9.31;87.08;99753.97;4989268;28;20488;-80
2020/12/13 06:03:52;;;;;;;69.20;30.60;;;9.90;98.70;;;9.33;87.12;99756.50;4989130;28;20392;-80
2020/12/13 06:06:23;;;;;;;71.13;30.05;;;9.90;98.70;;;9.35;86.76;99755.28;4989113;28;20042;-81
2020/12/13 06:09:07;;;;;;;65.53;29.67;;;9.90;98.80;;;9.35;86.95;99754.44;4989382;28;20061;-80
2020/12/13 06:11:40;;;;;;;71.22;29.15;;;9.90;98.80;;;9.34;87.29;99755.47;4989729;28;20047;-80
2020/12/13 06:14:11;;;;;;;64.47;28.85;;;9.90;98.70;;;9.33;87.36;99756.50;4988618;28;20050;-80
2020/12/13 06:16:39;;;;;;;69.00;30.17;;;9.90;98.60;;;9.32;87.36;99766.50;4988362;28;20043;-80
2020/12/13 06:19:08;;;;;;;60.85;28.50;;;9.90;98.60;;;9.34;86.98;99769.88;4988147;28;20051;-80
2020/12/13 06:21:36;;;;;;;61.58;27.75;;;9.90;98.70;;;9.34;87.08;99767.16;4988218;28;20046;-80
2020/12/13 06:24:03;;;;;;;66.65;29.88;;;9.90;98.70;;;9.34;87.20;99772.59;4987507;28;20582;-80
2020/12/13 06:26:30;;;;;;;58.80;27.73;;;9.90;98.70;;;9.37;87.09;99774.91;4987410;28;20885;-80
2020/12/13 06:28:57;;;;;;;59.70;28.60;;;9.90;98.70;;;9.36;87.09;99781.38;4987271;28;20047;-80
2020/12/13 06:31:24;;;;;;;63.00;28.77;;;9.90;98.70;;;9.39;86.84;99781.00;4987032;28;20053;-80
2020/12/13 06:33:52;;;;;;;64.47;29.45;;;9.90;98.70;;;9.37;86.99;99788.50;4987388;28;20055;-80
2020/12/13 06:36:24;;;;;;;63.53;28.60;;;9.90;98.80;;;9.38;86.80;99781.19;4988145;28;20089;-81
2020/12/13 06:38:57;;;;;;;61.55;28.60;;;9.90;98.70;;;9.39;86.82;99781.00;4988026;28;20368;-80
2020/12/13 06:41:26;;;;;;;57.15;27.92;;;9.90;98.80;;;9.41;86.88;99785.41;4988544;28;20082;-80
2020/12/13 06:44:06;;;;;;;60.83;27.95;;;9.90;98.80;;;9.38;87.10;99789.34;4984179;28;20074;-80
2020/12/13 06:46:35;;;;;;;53.88;25.85;;;9.90;98.80;;;9.36;87.05;99792.25;4987926;28;20050;-80
2020/12/13 06:49:03;;;;;;;50.92;24.35;;;9.90;98.70;;;9.37;87.18;99793.94;4987623;28;20050;-80
2020/12/13 06:51:32;;;;;;;51.88;24.70;;;9.90;98.70;;;9.34;87.21;99794.31;4987437;28;20047;-80
2020/12/13 06:54:00;;;;;;;50.35;25.48;;;9.90;98.80;;;9.35;87.15;99806.88;4985830;28;20074;-80
2020/12/13 06:56:27;;;;;;;47.05;26.17;;;9.90;98.70;;;9.34;87.19;99805.16;4985639;28;20055;-80
2020/12/13 06:58:56;;;;;;;46.25;23.95;;;9.90;98.70;;;9.36;87.18;99803.09;4985163;28;20061;-80
2020/12/13 07:01:29;;;;;;;49.10;23.92;;;9.90;98.70;;;9.35;86.88;99812.28;4983221;28;20147;-80
2020/12/13 07:03:58;;;;;;;45.22;22.95;;;9.90;98.80;;;9.37;86.91;99815.66;4984621;28;20055;-80
2020/12/13 07:06:44;;;;;;;47.35;23.85;;;9.90;98.80;;;9.36;87.29;99813.13;4985220;28;20055;-81
2020/12/13 07:09:13;;;;;;;50.85;24.98;;;9.80;98.80;;;9.39;86.76;99812.75;4986911;28;20368;-80
2020/12/13 07:11:42;;;;;;;51.70;24.80;;;9.80;98.80;;;9.36;86.99;99819.38;4987415;28;20081;-80
2020/12/13 07:14:12;;;;;;;48.60;24.80;;;9.80;98.80;;;9.36;86.97;99824.00;4986550;28;20047;-80
2020/12/13 07:16:44;;;;;;;48.67;24.05;;;9.80;98.90;;;9.34;86.97;99821.47;4987097;28;20039;-80
2020/12/13 07:19:13;;;;;;;52.58;25.65;;;9.80;98.90;;;9.36;86.84;99824.81;4986720;28;20082;-80
2020/12/13 07:21:42;;;;;;;53.97;26.70;;;9.80;98.90;;;9.36;87.05;99822.09;4986921;28;20046;-80
2020/12/13 07:24:11;;;;;;;52.80;25.50;;;9.80;98.80;;;9.35;87.05;99825.03;4983565;28;20051;-80
2020/12/13 07:26:39;;;;;;;52.80;26.90;;;9.90;98.70;;;9.34;87.31;99832.31;4984822;28;20090;-80
2020/12/13 07:29:14;;;;;;;54.13;27.17;;;9.80;98.80;;;9.36;86.91;99824.00;4985029;28;20113;-80
2020/12/13 07:31:45;;;;;;;57.70;28.23;;;9.90;98.90;;;9.36;87.11;99824.00;4985351;28;20314;-80
2020/12/13 07:34:12;;;;;;;59.63;28.23;;;9.80;98.80;;;9.32;87.03;99834.41;4982954;28;20047;-80
2020/12/13 07:36:39;;;;;;;52.30;26.98;;;9.80;98.80;;;9.32;87.00;99837.09;4986030;28;20047;-80
2020/12/13 07:39:12;;;;;;;53.45;25.35;;;9.90;98.90;;;9.32;86.94;99839.81;4986483;28;20109;-80
2020/12/13 07:41:39;;;;;;;54.00;28.00;;;9.90;99.00;;;9.34;86.88;99843.19;4987384;28;20038;-80
2020/12/13 07:44:09;;;;;;;55.35;27.73;;;9.80;98.80;;;9.35;87.17;99853.03;4987925;28;20082;-80
2020/12/13 07:46:37;;;;;;;57.47;29.27;;;9.90;98.90;;;9.33;87.20;99846.94;4988001;28;20168;-80
2020/12/13 07:49:08;;;;;;;54.38;28.67;;;9.90;98.70;;;9.31;87.06;99854.44;4978312;28;20263;-81
2020/12/13 07:51:38;;;;;;;57.13;28.20;;;9.80;98.70;;;9.32;86.98;99861.53;4979101;28;20062;-81
2020/12/13 07:54:25;;;;;;;48.88;26.55;;;9.80;98.70;;;9.31;86.76;99857.16;4978958;28;20046;-82
2020/12/13 07:57:02;;;;;;;52.35;27.70;;;9.80;98.70;;;9.32;86.62;99866.97;4976880;28;20138;-82
2020/12/13 07:59:32;;;;;;;51.45;28.10;;;9.80;98.50;;;9.36;86.44;99879.13;4981376;28;20129;-83
2020/12/13 08:01:59;;;;;;;49.78;26.63;;;9.80;98.60;;;9.33;86.75;99876.00;4979555;28;20102;-83
2020/12/13 08:04:37;;;;;;;48.25;25.55;;;9.80;98.60;;;9.33;86.54;99874.09;4977685;28;20130;-83
2020/12/13 08:07:05;;;;;;;53.67;25.73;;;9.80;98.50;;;9.31;86.59;99876.19;4976065;28;20643;-82
2020/12/13 08:09:33;;;;;;;45.67;23.63;;;9.80;98.50;;;9.31;86.62;99884.31;4979535;28;20046;-82
2020/12/13 08:12:00;;;;;;;44.28;23.95;;;9.80;98.50;;;9.31;86.31;99888.88;4977778;28;20081;-83
2020/12/13 08:14:27;;;;;;;42.95;23.88;;;9.70;98.50;;;9.32;86.34;99896.84;4979748;28;20065;-82
2020/12/13 08:16:55;;;;;;;41.70;23.63;;;9.70;98.50;;;9.29;86.34;99888.25;4977481;28;20105;-82
2020/12/13 08:19:28;;;;;;;45.65;23.95;;;9.70;98.50;;;9.30;86.25;99898.91;4978918;28;20384;-82
2020/12/13 08:22:02;;;;;;;41.53;23.60;;;9.70;98.40;;;9.29;86.31;99894.53;4979867;28;20071;-82
2020/12/13 08:24:29;;;;;;;50.70;23.77;;;9.70;98.40;;;9.25;86.01;99903.25;4976895;28;20562;-82
2020/12/13 08:26:59;;;;;;;44.35;22.98;;;9.70;98.30;;;9.24;86.06;99902.41;4975723;28;20042;-82
2020/12/13 08:29:27;;;;;;;39.88;21.35;;;9.70;98.20;;;9.23;85.98;99906.13;4979248;28;20067;-82
2020/12/13 08:31:56;;;;;;;41.67;23.45;;;9.70;98.20;;;9.22;85.89;99906.34;4981290;28;20381;-82
2020/12/13 08:34:25;;;;;;;42.17;22.10;;;9.70;98.20;;;9.23;86.09;99900.72;4978638;28;20070;-81
2020/12/13 08:36:55;;;;;;;38.70;21.55;;;9.70;98.20;;;9.24;85.95;99898.84;4978850;28;20499;-82
2020/12/13 08:39:31;;;;;;;41.05;21.35;;;9.70;98.20;;;9.25;86.19;99919.53;4975078;28;20508;-83
2020/12/13 08:42:00;;;;;;;44.80;21.52;;;9.70;98.20;;;9.25;85.65;99920.38;4975017;28;20126;-83
2020/12/13 08:44:35;;;;;;;35.22;20.95;;;9.60;98.20;;;9.25;85.62;99920.38;4973830;28;20766;-82
2020/12/13 08:47:04;;;;;;;36.53;19.67;;;9.70;98.30;;;9.25;85.98;99923.06;4979823;28;20046;-81
2020/12/13 08:49:34;;;;;;;38.75;20.13;;;9.70;98.30;;;9.24;86.01;99926.84;4968186;28;20071;-81
2020/12/13 08:52:15;;;;;;;38.78;19.33;;;9.70;98.20;;;9.26;85.66;99932.09;4958702;28;20067;-81
2020/12/13 08:54:49;;;;;;;40.17;20.75;;;9.70;98.10;;;9.26;85.53;99932.91;4960919;28;20058;-81
2020/12/13 08:57:31;;;;;;;38.20;19.17;;;9.60;97.90;;;9.26;85.83;99935.63;4979113;28;20050;-81
2020/12/13 09:00:00;;;;;;;35.67;18.63;;;9.60;98.10;;;9.25;85.85;99947.50;4984748;28;20046;-80
2020/12/13 09:02:27;;;;;;;34.40;18.55;;;9.70;98.10;;;9.27;85.40;99955.47;4985311;28;20050;-81
2020/12/13 09:04:58;;;;;;;36.00;18.75;;;9.70;98.10;;;9.25;85.39;99954.81;4978399;28;20138;-81
2020/12/13 09:07:31;;;;;;;37.35;19.48;;;9.60;98.10;;;9.22;85.44;99956.06;4978916;28;20145;-81
2020/12/13 09:10:11;;;;;;;31.73;18.45;;;9.90;98.20;;;9.22;85.94;99969.63;4982267;28;20059;-81
2020/12/13 09:12:41;;;;;;;40.85;19.00;;;9.60;97.90;;;9.24;85.55;99964.84;4981149;28;20058;-80
2020/12/13 09:15:12;;;;;;;30.10;17.17;;;9.60;98.10;;;9.26;85.73;99970.94;4981744;28;20404;-81
2020/12/13 09:17:39;;;;;;;28.42;17.15;;;9.60;98.00;;;9.21;85.81;99978.78;4984871;28;20415;-81
2020/12/13 09:20:07;;;;;;;31.33;17.35;;;9.60;98.00;;;9.24;85.59;99977.59;4982914;28;20097;-81
2020/12/13 09:22:34;;;;;;;30.17;17.40;;;9.60;97.90;;;9.22;85.31;99983.22;4977557;28;20530;-81
2020/12/13 09:25:01;;;;;;;31.77;16.83;;;9.60;97.90;;;9.23;85.22;99998.44;4974548;28;20467;-81
2020/12/13 09:27:29;;;;;;;35.63;17.30;;;9.60;98.00;;;9.23;85.52;99987.59;4979828;28;20101;-82
2020/12/13 09:29:57;;;;;;;39.50;17.23;;;9.60;97.90;;;9.25;85.35;99998.28;4975191;28;20117;-84
2020/12/13 09:32:24;;;;;;;29.02;15.25;;;9.60;98.00;;;9.22;85.12;100001.38;4973234;28;20414;-84
2020/12/13 09:34:50;;;;;;;36.35;15.52;;;9.60;97.90;;;9.18;85.47;100006.34;4974510;28;20054;-84
2020/12/13 09:37:19;;;;;;;29.95;15.80;;;9.60;97.60;;;9.20;85.35;100007.00;4972770;28;20043;-83
2020/12/13 09:39:46;;;;;;;32.47;16.38;;;9.60;97.60;;;9.23;85.31;100005.75;4973258;28;20050;-83
2020/12/13 09:42:16;;;;;;;38.17;17.00;;;9.60;97.60;;;9.23;85.09;100003.88;4974273;28;20113;-85
2020/12/13 09:44:47;;;;;;;35.17;17.13;;;9.60;97.60;;;9.22;85.21;100002.22;4976950;28;20043;-79
2020/12/13 09:47:15;;;;;;;34.58;15.30;;;9.60;97.60;;;9.23;85.12;100009.31;4983956;28;20054;-82
2020/12/13 09:49:42;;;;;;;27.20;15.63;;;9.60;97.70;;;9.23;85.32;100019.34;4973358;28;20074;-82
2020/12/13 09:52:08;;;;;;;26.02;14.02;;;9.60;97.80;;;9.18;85.06;100014.50;4971245;28;20142;-82
2020/12/13 09:54:35;;;;;;;32.42;15.20;;;9.60;97.70;;;9.19;85.06;100013.44;4971616;28;20051;-82
2020/12/13 09:57:02;;;;;;;27.33;15.95;;;9.60;97.60;;;9.20;85.08;100009.72;4971606;28;20222;-82
2020/12/13 09:59:29;;;;;;;26.15;15.13;;;9.60;97.60;;;9.21;85.14;100016.81;4969826;28;20047;-82
2020/12/13 10:01:56;;;;;;;30.98;15.05;;;9.60;97.70;;;9.18;85.29;100015.31;4958776;28;20049;-82
2020/12/13 10:04:24;;;;;;;29.98;14.50;;;9.70;97.80;;;9.23;85.53;100011.19;4970416;28;20097;-82
2020/12/13 10:09:37;;;;;;;27.45;15.45;;;9.70;97.90;;;9.25;85.33;100018.09;4959520;28;20421;-82
2020/12/13 10:12:03;;;;;;;27.00;14.18;;;9.70;97.70;;;9.28;85.32;100015.03;4957189;28;20055;-82
2020/12/13 10:14:30;;;;;;;29.60;12.88;;;9.70;97.70;;;9.27;85.34;100010.66;4964062;28;20554;-82
2020/12/13 10:16:57;;;;;;;25.70;13.15;;;9.70;97.60;;;9.28;85.47;100025.88;4952864;28;20074;-82
2020/12/13 10:19:31;;;;;;;24.17;13.45;;;9.70;97.60;;;9.27;84.98;100026.94;4960660;28;20038;-82
2020/12/13 10:21:58;;;;;;;28.23;13.48;;;9.70;97.60;;;9.28;84.93;100028.59;4969901;28;20051;-82
2020/12/13 10:24:25;;;;;;;27.55;13.75;;;9.70;97.50;;;9.30;85.29;100031.13;4969340;28;20038;-82
2020/12/13 10:26:52;;;;;;;33.85;14.40;;;9.70;97.50;;;9.25;85.03;100030.84;4960051;28;20075;-82